Accueil
METAR-TAF:

METAR-TAF

Aéroports :

Wattisham, Angleterre

latitude: 52-07N, longitude: 000-58E, altitude: 87 m

Observation

Le bulletin a été fait il y a 1 heure et 13 minutes, à 01:50 UTC
Vent 5 kt de ouest
Température 10°C
Humidité 93%
Pression 1016 hPa
Visibilité 10 km ou plus

METAR: EGUW 170150Z AUTO 27005KT 9999 NCD 10/09 Q1016

Heure: 04:03 (03:03 UTC)

Prévision

Le bulletin a été fait il y a 13 heures et 31 minutes, à 13:32 UTC
Prévision valable du 16 à 15 UTC au 16 à 24 UTC
Vent 10 kt de ouest
Visibilité 10 km ou plus
pas de nuages en-dessous de 1500 mètres et pas de cumulonimbus.

TAF: EGUW 161332Z 1615/1624 26010KT CAVOK

Observations et prévisions météorologiques de plus de 4000 aéroports (messages METAR et TAF).

Les stations disponibles sont représentées par des disques jaunes et rouges sur la carte.

Passer la souris dessus pour voir le nom de la station.

Cliquer dessus pour voir les observations et prévisions météorologiques.

Pour changer de carte: cliquez sur les boutons verts avec une croix noire pour zoomer, sur le bouton vert avec un tiret pour effectuer un zoom arrière, ou sur les flèches vertes pour les cartes adjacentes.


METAR-TAF: